Time;durP1;ratioP1;P1;durP2;ratioP2;P2;SDS_P1;SDS_P2;PMS_P1;PMS_P2;Temp;Humidity;BMP_temperature;BMP_pressure;BME280_temperature;BME280_humidity;BME280_pressure;Samples;Min_cycle;Max_cycle;Signal;HPM_P1;HPM_P2
2023/01/19 00:00:48;;;;;;;1999.90;999.90;;;;;;;1.76;100.00;96169.53;4954493;28;20531;-75
2023/01/19 00:03:16;;;;;;;1999.90;999.90;;;;;;;1.63;100.00;96161.03;4954388;28;20031;-75
2023/01/19 00:05:42;;;;;;;1999.90;999.90;;;;;;;1.68;100.00;96168.28;4954253;28;20027;-74
2023/01/19 00:08:14;;;;;;;1999.90;999.90;;;;;;;1.70;100.00;96168.78;4953645;28;20030;-76
2023/01/19 00:10:45;;;;;;;1999.90;999.90;;;;;;;1.61;100.00;96140.84;4954368;28;20034;-78
2023/01/19 00:13:11;;;;;;;1999.90;999.90;;;;;;;1.57;100.00;96154.06;4954419;28;20078;-77
2023/01/19 00:15:36;;;;;;;1999.90;999.90;;;;;;;1.66;100.00;96146.19;4954300;28;20043;-80
2023/01/19 00:18:01;;;;;;;1999.90;999.90;;;;;;;1.66;100.00;96148.09;4954055;28;20421;-75
2023/01/19 00:20:29;;;;;;;1999.90;999.90;;;;;;;1.57;100.00;96148.69;4953863;28;20689;-78
2023/01/19 00:22:54;;;;;;;1999.90;999.90;;;;;;;1.57;100.00;96143.31;4936791;28;20085;-75
2023/01/19 00:25:19;;;;;;;1999.90;999.90;;;;;;;1.49;100.00;96145.81;4954081;28;20039;-75
2023/01/19 00:27:48;;;;;;;1999.90;999.90;;;;;;;1.57;100.00;96158.66;4953801;28;20027;-76
2023/01/19 00:30:14;;;;;;;1999.90;999.90;;;;;;;1.58;100.00;96160.28;4953994;28;20039;-77
2023/01/19 00:32:40;;;;;;;1999.90;999.90;;;;;;;1.58;100.00;96153.00;4954103;28;20035;-78
2023/01/19 00:35:05;;;;;;;1999.90;999.90;;;;;;;1.53;100.00;96158.44;4953657;28;20078;-75
2023/01/19 00:37:30;;;;;;;1999.90;999.90;;;;;;;1.49;100.00;96159.28;4954197;28;20035;-76
2023/01/19 00:39:56;;;;;;;1999.90;999.90;;;;;;;1.49;100.00;96145.81;4954479;28;20054;-75
2023/01/19 00:42:39;;;;;;;1999.90;999.90;;;;;;;1.55;100.00;96139.28;4958680;28;20054;-82
2023/01/19 00:45:08;;;;;;;1999.90;999.90;;;;;;;1.63;100.00;96161.03;4954287;28;20031;-75
2023/01/19 00:47:34;;;;;;;1999.90;999.90;;;;;;;1.61;100.00;96152.44;4953627;28;20027;-75
2023/01/19 00:49:59;;;;;;;1999.90;999.90;;;;;;;1.72;100.00;96165.81;4953444;28;20046;-75
2023/01/19 00:52:24;;;;;;;1999.90;999.90;;;;;;;1.78;100.00;96165.50;4953019;28;20051;-75
2023/01/19 00:54:50;;;;;;;1999.90;999.90;;;;;;;1.88;100.00;96170.78;4953485;28;20031;-76
2023/01/19 00:57:16;;;;;;;1999.90;999.90;;;;;;;1.85;100.00;96182.13;4953184;28;20030;-76
2023/01/19 00:59:41;;;;;;;1999.90;999.90;;;;;;;1.78;100.00;96181.66;4953390;28;20121;-75
2023/01/19 01:02:07;;;;;;;1999.90;999.90;;;;;;;1.92;100.00;96197.97;4953062;28;20517;-76
2023/01/19 01:04:32;;;;;;;1999.90;999.90;;;;;;;1.94;100.00;96206.59;4953232;28;20094;-75
2023/01/19 01:06:57;;;;;;;1999.90;999.90;;;;;;;1.99;100.00;96210.03;4953211;28;20035;-77
2023/01/19 01:09:23;;;;;;;1999.90;999.90;;;;;;;2.02;100.00;96216.75;4953349;28;20030;-74
2023/01/19 01:11:48;;;;;;;1999.90;999.90;;;;;;;1.87;100.00;96211.50;4952918;28;20027;-74
2023/01/19 01:14:14;;;;;;;1999.90;999.90;;;;;;;1.86;100.00;96209.88;4935880;28;20493;-75
2023/01/19 01:16:39;;;;;;;1999.90;999.90;;;;;;;1.95;100.00;96205.47;4952787;28;20027;-77
2023/01/19 01:19:04;;;;;;;1999.90;999.90;;;;;;;1.97;100.00;96206.81;4952786;28;20034;-74
2023/01/19 01:21:30;;;;;;;1999.90;999.90;;;;;;;1.78;100.00;96208.63;4952574;28;20039;-77
2023/01/19 01:23:55;;;;;;;1999.90;999.90;;;;;;;1.85;100.00;96217.16;4951602;29;20023;-74
2023/01/19 01:26:20;;;;;;;1999.90;999.90;;;;;;;1.78;100.00;96202.41;4953173;28;20138;-75
2023/01/19 01:28:46;;;;;;;1999.90;999.90;;;;;;;1.74;100.00;96191.41;4951931;29;20024;-75
2023/01/19 01:31:11;;;;;;;1999.90;999.90;;;;;;;1.80;100.00;96190.25;4956800;28;20145;-75
2023/01/19 01:33:36;;;;;;;1999.90;999.90;;;;;;;1.83;100.00;96188.88;4971874;28;20121;-75
2023/01/19 01:36:02;;;;;;;1999.90;999.90;;;;;;;1.76;100.00;96178.44;4971920;28;20037;-77
2023/01/19 01:38:28;;;;;;;1999.90;999.90;;;;;;;1.61;100.00;96173.19;4962236;28;20034;-75
2023/01/19 01:40:53;;;;;;;1999.90;999.90;;;;;;;1.71;100.00;96175.78;4952786;29;20042;-75
2023/01/19 01:43:19;;;;;;;1999.90;999.90;;;;;;;1.60;100.00;96172.38;4952740;29;20106;-75
2023/01/19 01:45:45;;;;;;;1999.90;999.90;;;;;;;1.70;100.00;96184.16;4952450;28;20042;-74
2023/01/19 01:48:16;;;;;;;1999.90;999.90;;;;;;;1.67;100.00;96179.31;4952694;28;20039;-75
2023/01/19 01:53:36;;;;;;;1999.90;999.90;;;;;;;1.73;100.00;96195.16;4952437;28;20472;-75
2023/01/19 01:56:06;;;;;;;1999.90;999.90;;;;;;;1.71;100.00;96185.75;4952483;28;20024;-74
2023/01/19 01:58:33;;;;;;;1999.90;999.90;;;;;;;1.76;100.00;96186.50;4952385;28;20498;-75
2023/01/19 02:03:42;;;;;;;1999.90;999.90;;;;;;;1.60;100.00;96175.06;4952523;28;20507;-76
2023/01/19 02:06:09;;;;;;;1999.90;999.90;;;;;;;1.65;100.00;96185.00;4952398;28;20031;-74
2023/01/19 02:14:12;;;;;;;;;;;;;;;1.65;100.00;96189.59;4953517;28;20070;-74
2023/01/19 02:16:37;;;;;;;;;;;;;;;1.63;100.00;96196.06;4953025;28;19914;-75
2023/01/19 02:19:05;;;;;;;1999.90;999.90;;;;;;;1.64;100.00;96191.47;4952880;28;19914;-74
2023/01/19 02:22:03;;;;;;;1999.90;999.90;;;;;;;1.67;100.00;96195.50;4953246;28;20062;-78
2023/01/19 02:24:29;;;;;;;1999.90;999.90;;;;;;;1.60;100.00;96195.81;4935754;28;20035;-76
2023/01/19 02:26:55;;;;;;;1999.90;999.90;;;;;;;1.55;100.00;96203.94;4952230;28;20028;-74
2023/01/19 02:29:23;;;;;;;1999.90;999.90;;;;;;;1.60;100.00;96211.97;4952214;28;20027;-75
2023/01/19 02:31:49;;;;;;;1999.90;999.90;;;;;;;1.72;100.00;96208.94;4953532;28;20028;-78
2023/01/19 02:34:16;;;;;;;1999.90;999.90;;;;;;;1.68;100.00;96219.47;4956111;28;20042;-77
2023/01/19 02:36:53;;;;;;;1999.90;999.90;;;;;;;1.71;100.00;96215.41;4956055;28;20062;-77
2023/01/19 02:39:28;;;;;;;1999.90;999.90;;;;;;;1.72;100.00;96203.53;4956198;28;20035;-76
2023/01/19 02:42:01;;;;;;;1999.90;999.90;;;;;;;1.89;100.00;96212.00;4955968;28;20106;-75
2023/01/19 02:44:29;;;;;;;1999.90;999.90;;;;;;;1.94;100.00;96222.75;4955909;28;20035;-77
2023/01/19 02:46:55;;;;;;;1999.90;999.90;;;;;;;1.91;100.00;96223.31;4955737;28;20062;-75
2023/01/19 02:49:21;;;;;;;1999.90;999.90;;;;;;;1.84;100.00;96223.66;4956041;28;20078;-75
2023/01/19 02:51:46;;;;;;;1999.90;999.90;;;;;;;1.77;100.00;96220.47;4958204;28;20023;-76
2023/01/19 02:54:21;;;;;;;1999.90;999.90;;;;;;;1.81;100.00;96231.50;4960828;28;20047;-78
2023/01/19 02:57:09;;;;;;;1999.90;999.90;;;;;;;1.71;100.00;96240.47;4956184;28;20074;-75
2023/01/19 03:00:02;;;;;;;1999.90;999.90;;;;;;;1.77;100.00;96233.13;4955622;28;20082;-75
2023/01/19 03:03:15;;;;;;;1999.90;999.90;;;;;;;1.74;100.00;96229.13;4955256;28;20035;-75
2023/01/19 03:06:05;;;;;;;1999.90;999.90;;;;;;;1.83;100.00;96238.22;4886460;28;20181;-74
2023/01/19 03:08:48;;;;;;;1999.90;999.90;;;;;;;1.80;100.00;96238.78;4955455;28;20171;-75
2023/01/19 03:11:14;;;;;;;1999.90;999.90;;;;;;;1.84;100.00;96237.13;4949618;28;20070;-75
2023/01/19 03:13:42;;;;;;;1999.90;999.90;;;;;;;1.83;100.00;96249.00;4946190;29;20559;-74
2023/01/19 03:16:40;;;;;;;1999.90;999.90;;;;;;;1.88;100.00;96251.63;4935765;29;20040;-75
2023/01/19 03:19:16;;;;;;;1999.90;999.90;;;;;;;1.86;100.00;96253.81;4917256;29;20090;-74
2023/01/19 03:21:46;;;;;;;1999.90;999.90;;;;;;;1.82;100.00;96258.16;4935757;29;20035;-73
2023/01/19 03:24:14;;;;;;;1999.90;999.90;;;;;;;1.75;100.00;96255.00;4935779;29;20079;-75
2023/01/19 03:26:44;;;;;;;1999.90;999.90;;;;;;;1.68;100.00;96251.81;4935395;29;20024;-74
2023/01/19 03:29:12;;;;;;;1999.90;999.90;;;;;;;1.69;100.00;96258.81;4938160;29;20027;-76
2023/01/19 03:31:40;;;;;;;1999.90;999.90;;;;;;;1.59;100.00;96256.19;4954654;29;20067;-74
2023/01/19 03:34:10;;;;;;;1999.90;999.90;;;;;;;1.73;100.00;96262.53;4954273;28;20023;-75
2023/01/19 03:36:45;;;;;;;1999.90;999.90;;;;;;;1.72;100.00;96260.94;4954452;28;20046;-75
2023/01/19 03:39:15;;;;;;;1999.90;999.90;;;;;;;1.74;100.00;96277.63;4954742;28;20043;-74
2023/01/19 03:41:42;;;;;;;1999.90;999.90;;;;;;;1.63;100.00;96266.09;4954382;28;20523;-75
2023/01/19 03:44:10;;;;;;;1999.90;999.90;;;;;;;1.53;100.00;96276.97;4954247;28;20034;-74
2023/01/19 03:46:36;;;;;;;1999.90;999.90;;;;;;;1.65;100.00;96273.09;4954191;28;20074;-75
2023/01/19 03:49:02;;;;;;;1999.90;999.90;;;;;;;1.63;100.00;96266.09;4953914;28;20063;-74
2023/01/19 03:51:27;;;;;;;1999.90;999.90;;;;;;;1.71;100.00;96272.78;4953979;28;20031;-74
2023/01/19 03:53:53;;;;;;;1999.90;999.90;;;;;;;1.67;100.00;96266.34;4953986;28;20496;-74
2023/01/19 03:56:24;;;;;;;1999.90;999.90;;;;;;;1.76;100.00;96274.63;4954019;28;20046;-74
2023/01/19 03:58:50;;;;;;;1999.90;999.90;;;;;;;1.78;100.00;96273.28;4937001;29;20035;-74
2023/01/19 04:01:17;;;;;;;1999.90;999.90;;;;;;;1.75;100.00;96271.16;4954124;28;20039;-74
2023/01/19 04:03:42;;;;;;;1999.90;999.90;;;;;;;1.76;100.00;96269.25;4953941;28;20042;-74
2023/01/19 04:06:09;;;;;;;1999.90;999.90;;;;;;;1.76;100.00;96271.94;4953618;28;20023;-74
2023/01/19 04:08:35;;;;;;;1999.90;999.90;;;;;;;1.84;100.00;96266.78;4953786;29;20042;-73
2023/01/19 04:11:00;;;;;;;1999.90;999.90;;;;;;;1.76;100.00;96261.16;4954163;29;20027;-75
2023/01/19 04:13:27;;;;;;;1999.90;999.90;;;;;;;1.68;100.00;96278.75;4954120;29;20027;-74
2023/01/19 04:15:53;;;;;;;1999.90;999.90;;;;;;;1.72;100.00;96276.31;4953700;29;20032;-75
2023/01/19 04:18:18;;;;;;;1999.90;999.90;;;;;;;1.71;100.00;96275.50;4953806;29;20137;-74
2023/01/19 04:20:44;;;;;;;1999.90;999.90;;;;;;;1.72;100.00;96284.38;4953659;29;20039;-74
2023/01/19 04:23:09;;;;;;;1999.90;999.90;;;;;;;1.63;100.00;96281.47;4953588;29;20028;-74
2023/01/19 04:25:34;;;;;;;1999.90;999.90;;;;;;;1.66;100.00;96283.59;4953559;29;20038;-74
2023/01/19 04:28:00;;;;;;;1999.90;999.90;;;;;;;1.63;100.00;96287.66;4953209;28;20030;-74
2023/01/19 04:30:26;;;;;;;1999.90;999.90;;;;;;;1.63;100.00;96296.84;4953140;29;20035;-75
2023/01/19 04:32:52;;;;;;;1999.90;999.90;;;;;;;1.68;100.00;96289.53;4953018;29;20031;-76
2023/01/19 04:35:18;;;;;;;1999.90;999.90;;;;;;;1.63;100.00;96288.75;4953742;29;20055;-74
2023/01/19 04:37:43;;;;;;;1999.90;999.90;;;;;;;1.60;100.00;96276.63;4952704;29;20089;-74
2023/01/19 04:40:09;;;;;;;1999.90;999.90;;;;;;;1.63;100.00;96283.38;4952654;29;20046;-75
2023/01/19 04:42:35;;;;;;;1999.90;999.90;;;;;;;1.56;100.00;96270.22;4953235;29;20034;-74
2023/01/19 04:45:00;;;;;;;1999.90;999.90;;;;;;;1.64;100.00;96272.31;4953150;29;20019;-75
2023/01/19 04:47:25;;;;;;;1999.90;999.90;;;;;;;1.57;100.00;96296.03;4953220;29;20027;-74
2023/01/19 04:49:51;;;;;;;1999.90;999.90;;;;;;;1.67;100.00;96296.00;4953076;29;20027;-74
2023/01/19 04:52:16;;;;;;;1999.90;999.90;;;;;;;1.66;100.00;96301.66;4953192;29;20081;-75
2023/01/19 04:54:41;;;;;;;1999.90;999.90;;;;;;;1.43;100.00;96301.25;4952672;28;20090;-75
2023/01/19 04:57:07;;;;;;;1999.90;999.90;;;;;;;1.51;100.00;96316.03;4953034;29;20532;-74
2023/01/19 04:59:32;;;;;;;1999.90;999.90;;;;;;;1.52;100.00;96298.78;4953032;29;20561;-75
2023/01/19 05:01:57;;;;;;;1999.90;999.90;;;;;;;1.52;100.00;96306.88;4953958;29;20889;-75
2023/01/19 05:04:24;;;;;;;1999.90;999.90;;;;;;;1.51;100.00;96311.44;4958986;29;20015;-77
2023/01/19 05:06:50;;;;;;;1999.90;999.90;;;;;;;1.46;100.00;96321.44;4954397;29;20081;-75
2023/01/19 05:09:16;;;;;;;1999.90;999.90;;;;;;;1.44;100.00;96315.53;4953444;29;20028;-74
2023/01/19 05:11:41;;;;;;;1999.90;999.90;;;;;;;1.40;100.00;96314.47;4953317;29;20038;-75
2023/01/19 05:14:06;;;;;;;1999.90;999.90;;;;;;;1.40;100.00;96319.88;4953245;29;20527;-75
2023/01/19 05:16:32;;;;;;;1999.90;999.90;;;;;;;1.32;100.00;96325.81;4952848;29;20162;-76
2023/01/19 05:18:57;;;;;;;1999.90;999.90;;;;;;;1.23;100.00;96330.16;4953114;29;20020;-74
2023/01/19 05:21:23;;;;;;;1999.90;999.90;;;;;;;1.23;100.00;96335.56;4952926;29;20039;-73
2023/01/19 05:23:48;;;;;;;1999.90;999.90;;;;;;;1.22;100.00;96337.47;4952881;29;20515;-75
2023/01/19 05:26:13;;;;;;;1999.90;999.90;;;;;;;1.31;100.00;96351.16;4952959;29;20031;-74
2023/01/19 05:28:38;;;;;;;1999.90;999.90;;;;;;;1.34;100.00;96346.03;4935793;29;20031;-75
2023/01/19 05:31:04;;;;;;;1999.90;999.90;;;;;;;1.24;100.00;96343.38;4952566;29;20038;-75
2023/01/19 05:33:30;;;;;;;1999.90;999.90;;;;;;;1.16;100.00;96340.44;4952876;29;20031;-76
2023/01/19 05:35:55;;;;;;;1999.90;999.90;;;;;;;1.21;100.00;96337.72;4952896;29;20051;-76
2023/01/19 05:38:21;;;;;;;1999.90;999.90;;;;;;;1.31;100.00;96349.28;4953108;29;20617;-74
2023/01/19 05:40:46;;;;;;;1999.90;999.90;;;;;;;1.35;100.00;96354.88;4952667;29;20030;-74
2023/01/19 05:43:13;;;;;;;1999.90;999.90;;;;;;;1.31;100.00;96351.97;4952606;29;20391;-74
2023/01/19 05:45:38;;;;;;;1999.90;999.90;;;;;;;1.31;100.00;96343.06;4952351;29;20023;-75
2023/01/19 05:48:05;;;;;;;1999.90;999.90;;;;;;;1.30;100.00;96341.44;4952615;29;20019;-75
2023/01/19 05:50:31;;;;;;;1999.90;999.90;;;;;;;1.42;100.00;96344.63;4952683;29;20039;-74
2023/01/19 05:52:56;;;;;;;1999.90;999.90;;;;;;;1.29;100.00;96350.59;4952532;29;20408;-74
2023/01/19 05:55:22;;;;;;;1999.90;999.90;;;;;;;1.28;100.00;96360.59;4952707;29;20027;-77
2023/01/19 05:57:47;;;;;;;1999.90;999.90;;;;;;;1.29;100.00;96367.56;4966204;28;20133;-75
2023/01/19 06:00:13;;;;;;;1999.90;999.90;;;;;;;1.26;100.00;96372.69;4972051;28;20144;-75
2023/01/19 06:02:39;;;;;;;1999.90;999.90;;;;;;;1.30;100.00;96373.75;4971920;28;20034;-75
2023/01/19 06:05:04;;;;;;;1999.90;999.90;;;;;;;1.37;100.00;96372.41;4971872;28;20426;-76
2023/01/19 06:07:30;;;;;;;1999.90;999.90;;;;;;;1.42;100.00;96368.88;4956609;28;20027;-77
2023/01/19 06:09:56;;;;;;;1999.90;999.90;;;;;;;1.37;100.00;96371.59;4976052;28;20513;-75
2023/01/19 06:12:22;;;;;;;1999.90;999.90;;;;;;;1.32;100.00;96379.66;4975613;28;20396;-74
2023/01/19 06:14:47;;;;;;;1999.90;999.90;;;;;;;1.26;100.00;96376.19;4975503;28;20031;-74
2023/01/19 06:17:12;;;;;;;1999.90;999.90;;;;;;;1.35;100.00;96377.25;4956344;28;20031;-77
2023/01/19 06:19:38;;;;;;;1999.90;999.90;;;;;;;1.25;100.00;96387.25;4956201;29;20039;-77
2023/01/19 06:22:03;;;;;;;1999.90;999.90;;;;;;;1.24;100.00;96380.25;4956283;29;20023;-75
2023/01/19 06:24:28;;;;;;;1999.90;999.90;;;;;;;1.25;100.00;96393.47;4956466;29;20028;-77
2023/01/19 06:26:54;;;;;;;1999.90;999.90;;;;;;;1.38;100.00;96400.13;4956238;29;20035;-75
2023/01/19 06:29:20;;;;;;;1999.90;999.90;;;;;;;1.31;100.00;96399.63;4956048;29;20066;-75
2023/01/19 06:31:46;;;;;;;1999.90;999.90;;;;;;;1.33;100.00;96400.94;4957116;29;20058;-78
2023/01/19 06:34:11;;;;;;;1999.90;999.90;;;;;;;1.36;100.00;96395.03;4958057;29;20058;-83
2023/01/19 06:36:37;;;;;;;1999.90;999.90;;;;;;;1.33;100.00;96394.75;4958142;29;20078;-84
2023/01/19 06:39:04;;;;;;;1999.90;999.90;;;;;;;1.29;100.00;96401.75;4956612;29;20031;-74
2023/01/19 06:41:31;;;;;;;1999.90;999.90;;;;;;;1.29;100.00;96401.75;4956048;29;20019;-75
2023/01/19 06:43:56;;;;;;;1999.90;999.90;;;;;;;1.38;100.00;96398.22;4955596;29;20023;-75
2023/01/19 06:46:22;;;;;;;1999.90;999.90;;;;;;;1.47;100.00;96409.25;4922443;29;20037;-75
2023/01/19 06:48:47;;;;;;;1999.90;999.90;;;;;;;1.39;100.00;96412.50;4956558;29;20035;-75
2023/01/19 06:51:12;;;;;;;1999.90;999.90;;;;;;;1.48;100.00;96416.25;4955772;29;20058;-75
2023/01/19 06:53:38;;;;;;;1999.90;999.90;;;;;;;1.44;100.00;96417.91;4951058;28;20061;-78
2023/01/19 06:56:05;;;;;;;1999.90;999.90;;;;;;;1.32;100.00;96430.84;4949990;29;20027;-77
2023/01/19 06:58:31;;;;;;;1999.90;999.90;;;;;;;1.47;100.00;96436.19;4936577;29;20023;-75
2023/01/19 07:01:15;;;;;;;1999.90;999.90;;;;;;;1.41;100.00;96450.75;4949985;29;20354;-76
2023/01/19 07:03:40;;;;;;;1999.90;999.90;;;;;;;1.27;100.00;96445.13;4955003;29;20440;-76
2023/01/19 07:06:05;;;;;;;1999.90;999.90;;;;;;;1.44;100.00;96455.59;4954858;29;20019;-75
2023/01/19 07:08:32;;;;;;;1999.90;999.90;;;;;;;1.43;100.00;96464.75;4955641;29;20160;-76
2023/01/19 07:11:00;;;;;;;1999.90;999.90;;;;;;;1.41;100.00;96466.94;4955253;29;20046;-74
2023/01/19 07:13:25;;;;;;;1999.90;999.90;;;;;;;1.31;100.00;96458.88;4942405;29;20134;-80
2023/01/19 07:15:50;;;;;;;1999.90;999.90;;;;;;;1.27;100.00;96466.69;4940915;29;20031;-75
2023/01/19 07:18:16;;;;;;;1999.90;999.90;;;;;;;1.35;100.00;96476.06;4918133;29;20031;-77
2023/01/19 07:20:43;;;;;;;1999.90;999.90;;;;;;;1.40;100.00;96481.47;4935584;29;20439;-75
2023/01/19 07:23:09;;;;;;;1999.90;999.90;;;;;;;1.35;100.00;96497.63;4935720;29;20046;-76
2023/01/19 07:25:35;;;;;;;1999.90;999.90;;;;;;;1.43;100.00;96489.00;4918102;29;20464;-75
2023/01/19 07:28:01;;;;;;;1999.90;999.90;;;;;;;1.37;100.00;96504.38;4952231;29;20482;-74
2023/01/19 07:30:26;;;;;;;1999.90;999.90;;;;;;;1.41;100.00;96513.50;4954558;29;20039;-74
2023/01/19 07:32:55;;;;;;;1999.90;999.90;;;;;;;1.41;100.00;96516.19;4954518;29;20056;-73
2023/01/19 07:35:20;;;;;;;1999.90;999.90;;;;;;;1.42;100.00;96530.47;4954513;29;20496;-77
2023/01/19 07:37:46;;;;;;;1999.90;999.90;;;;;;;1.37;100.00;96535.88;4954285;29;20051;-76
2023/01/19 07:40:14;;;;;;;1999.90;999.90;;;;;;;1.36;100.00;96532.38;4954891;29;20027;-76
2023/01/19 07:42:45;;;;;;;1999.90;999.90;;;;;;;1.48;100.00;96543.66;4954488;29;20067;-76
2023/01/19 07:45:11;;;;;;;1999.90;999.90;;;;;;;1.52;100.00;96538.53;4954451;29;20019;-76
2023/01/19 07:47:37;;;;;;;1999.90;999.90;;;;;;;1.56;100.00;96555.78;4954516;29;20114;-76
2023/01/19 07:50:03;;;;;;;1999.90;999.90;;;;;;;2.21;100.00;96567.41;4936571;29;20028;-75
2023/01/19 07:52:29;;;;;;;1999.90;999.90;;;;;;;2.53;100.00;96574.03;4934935;29;20449;-76
2023/01/19 07:54:54;;;;;;;1999.90;999.90;;;;;;;2.53;100.00;96581.31;4937205;29;20066;-75
2023/01/19 07:57:20;;;;;;;1999.90;999.90;;;;;;;2.89;100.00;96581.88;4920582;29;20043;-76
2023/01/19 07:59:45;;;;;;;1999.90;999.90;;;;;;;2.80;100.00;96584.38;4935015;29;20032;-77
2023/01/19 08:02:11;;;;;;;1999.90;999.90;;;;;;;3.00;100.00;96611.25;4935523;29;20039;-76
2023/01/19 08:04:36;;;;;;;1999.90;999.90;;;;;;;2.64;100.00;96620.63;4935959;29;20031;-78
2023/01/19 08:07:02;;;;;;;1999.90;999.90;;;;;;;2.36;100.00;96634.78;4936202;29;20028;-77
2023/01/19 08:09:27;;;;;;;1999.90;999.90;;;;;;;2.06;100.00;96635.72;4936348;29;20058;-74
2023/01/19 08:11:53;;;;;;;1999.90;999.90;;;;;;;1.83;100.00;96637.09;4935025;29;20393;-76
2023/01/19 08:14:18;;;;;;;1999.90;999.90;;;;;;;1.60;100.00;96638.47;4934980;29;20042;-76
2023/01/19 08:16:43;;;;;;;1999.90;999.90;;;;;;;1.49;100.00;96641.44;4934647;29;20389;-75
2023/01/19 08:19:09;;;;;;;1999.90;999.90;;;;;;;1.37;100.00;96644.41;4934757;29;20128;-76
2023/01/19 08:21:37;;;;;;;1999.90;999.90;;;;;;;1.40;100.00;96637.69;4934672;29;20027;-76
2023/01/19 08:24:02;;;;;;;1999.90;999.90;;;;;;;1.40;100.00;96651.16;4934478;29;20027;-75
2023/01/19 08:26:34;;;;;;;1999.90;999.90;;;;;;;1.33;100.00;96667.56;4934157;29;20090;-75
2023/01/19 08:29:01;;;;;;;1999.90;999.90;;;;;;;1.46;100.00;96658.16;4933320;29;20035;-76
2023/01/19 08:31:27;;;;;;;1999.90;999.90;;;;;;;1.37;100.00;96671.34;4934708;29;20031;-75
2023/01/19 08:33:53;;;;;;;1999.90;999.90;;;;;;;1.40;100.00;96665.44;4934257;29;20393;-76
2023/01/19 08:36:19;;;;;;;1999.90;999.90;;;;;;;1.51;100.00;96677.00;4934056;29;20035;-75
2023/01/19 08:38:45;;;;;;;1999.90;999.90;;;;;;;1.31;100.00;96685.06;4928006;29;20413;-76
2023/01/19 08:41:10;;;;;;;1999.90;999.90;;;;;;;1.32;100.00;96687.50;4951312;29;20739;-74
2023/01/19 08:43:36;;;;;;;1999.90;999.90;;;;;;;1.34;100.00;96687.22;4952525;29;20118;-75
2023/01/19 08:46:03;;;;;;;1999.90;999.90;;;;;;;1.27;100.00;96687.50;4952276;29;20034;-76
2023/01/19 08:48:28;;;;;;;1999.90;999.90;;;;;;;1.23;100.00;96696.34;4952096;29;20055;-83
2023/01/19 08:50:54;;;;;;;1999.90;999.90;;;;;;;1.25;100.00;96694.22;4932315;28;20030;-75
2023/01/19 08:53:22;;;;;;;1999.90;999.90;;;;;;;1.30;100.00;96697.72;4949968;29;20496;-75
2023/01/19 08:55:48;;;;;;;1999.90;999.90;;;;;;;1.20;100.00;96704.97;4951799;28;20024;-76
2023/01/19 08:58:14;;;;;;;1999.90;999.90;;;;;;;1.24;100.00;96700.69;4951310;29;20026;-75
2023/01/19 09:00:40;;;;;;;1999.90;999.90;;;;;;;1.31;100.00;96710.13;4952270;29;20031;-76
2023/01/19 09:03:07;;;;;;;1999.90;999.90;;;;;;;1.41;100.00;96714.72;4935148;29;20512;-75
2023/01/19 09:05:36;;;;;;;1999.90;999.90;;;;;;;1.38;100.00;96717.94;4951457;29;20031;-75
2023/01/19 09:08:03;;;;;;;1999.90;999.90;;;;;;;1.36;100.00;96728.97;4951984;29;20532;-76
2023/01/19 09:10:30;;;;;;;1999.90;999.90;;;;;;;1.29;100.00;96728.41;4951854;29;20070;-75
2023/01/19 09:12:56;;;;;;;1999.90;999.90;;;;;;;1.27;100.00;96721.69;4951870;29;20078;-74
2023/01/19 09:15:22;;;;;;;1999.90;999.90;;;;;;;1.33;100.00;96717.94;4951683;29;20420;-77
2023/01/19 09:17:47;;;;;;;1999.90;999.90;;;;;;;1.24;100.00;96725.72;4952229;29;20090;-75
2023/01/19 09:20:13;;;;;;;1999.90;999.90;;;;;;;1.32;100.00;96727.88;4952320;29;20038;-77
2023/01/19 09:22:38;;;;;;;1999.90;999.90;;;;;;;1.32;100.00;96743.22;4956203;29;20023;-76
2023/01/19 09:25:05;;;;;;;1999.90;999.90;;;;;;;1.36;100.00;96745.13;4954294;29;20034;-76
2023/01/19 09:27:30;;;;;;;1999.90;999.90;;;;;;;1.39;100.00;96747.28;4951521;29;20104;-75
2023/01/19 09:29:55;;;;;;;1999.90;999.90;;;;;;;1.37;100.00;96760.22;4934349;29;20031;-74
2023/01/19 09:32:21;;;;;;;1999.90;999.90;;;;;;;1.38;100.00;96758.34;4951693;29;20027;-75
2023/01/19 09:34:47;;;;;;;1999.90;999.90;;;;;;;1.37;100.00;96754.84;4951385;29;20035;-75
2023/01/19 09:37:14;;;;;;;1999.90;999.90;;;;;;;1.33;100.00;96761.00;4951816;29;20481;-76
2023/01/19 09:39:40;;;;;;;1999.90;999.90;;;;;;;1.49;100.00;96754.59;4936905;29;20047;-75
2023/01/19 09:42:17;;;;;;;1999.90;999.90;;;;;;;1.54;100.00;96758.09;4932332;29;20063;-75
2023/01/19 09:44:47;;;;;;;1999.90;999.90;;;;;;;1.65;100.00;96750.03;4932522;29;20561;-77
2023/01/19 09:47:15;;;;;;;1999.90;999.90;;;;;;;1.74;100.00;96767.28;4932352;29;20027;-74
2023/01/19 09:49:48;;;;;;;1999.90;999.90;;;;;;;1.75;100.00;96752.72;4932490;29;20035;-77
2023/01/19 09:52:14;;;;;;;1999.90;999.90;;;;;;;1.88;100.00;96763.78;4932509;29;20048;-75
2023/01/19 09:54:47;;;;;;;1999.90;999.90;;;;;;;1.91;100.00;96765.91;4932646;29;20032;-77
2023/01/19 09:57:13;;;;;;;1999.90;999.90;;;;;;;2.04;100.00;96761.88;4932948;29;20023;-75
2023/01/19 09:59:46;;;;;;;1999.90;999.90;;;;;;;2.18;100.00;96762.97;4932678;29;20079;-75
2023/01/19 10:02:11;;;;;;;1999.90;999.90;;;;;;;2.41;100.00;96766.97;4933229;29;20035;-75
2023/01/19 10:04:42;;;;;;;1999.90;999.90;;;;;;;2.71;100.00;96766.91;4932812;29;20478;-74
2023/01/19 10:07:14;;;;;;;1999.90;999.90;;;;;;;3.08;100.00;96772.69;4915493;29;20028;-76
2023/01/19 10:09:46;;;;;;;1999.90;999.90;;;;;;;3.23;100.00;96772.63;4932677;29;20036;-76
2023/01/19 10:12:28;;;;;;;1999.90;999.90;;;;;;;3.43;100.00;96777.13;4916713;29;20424;-76
2023/01/19 10:15:08;;;;;;;1999.90;999.90;;;;;;;3.87;100.00;96777.13;4932730;29;20023;-76
2023/01/19 10:18:10;;;;;;;1999.90;999.90;;;;;;;3.89;100.00;96787.63;4916718;29;20039;-76
2023/01/19 10:21:03;;;;;;;1999.90;999.90;;;;;;;3.50;100.00;96787.63;4933175;29;20039;-74
2023/01/19 10:23:34;;;;;;;1999.90;999.90;;;;;;;3.37;100.00;96791.75;4932553;29;20040;-76
2023/01/19 10:26:05;;;;;;;1999.90;999.90;;;;;;;3.21;100.00;96791.03;4932590;29;20036;-74
2023/01/19 10:28:31;;;;;;;1999.90;999.90;;;;;;;3.00;100.00;96794.91;4932580;29;20039;-76
2023/01/19 10:30:56;;;;;;;1999.90;999.90;;;;;;;2.83;100.00;96794.41;4932395;29;20032;-76
2023/01/19 10:33:22;;;;;;;1999.90;999.90;;;;;;;2.77;100.00;96794.69;4932913;29;20107;-75
2023/01/19 10:35:48;;;;;;;1999.90;999.90;;;;;;;2.70;100.00;96806.56;4951156;29;20214;-76
2023/01/19 10:38:18;;;;;;;1999.90;999.90;;;;;;;2.65;100.00;96806.59;4951891;29;20062;-76
2023/01/19 10:40:51;;;;;;;1999.90;999.90;;;;;;;2.56;100.00;96807.44;4949905;29;20114;-74
2023/01/19 10:43:35;;;;;;;1999.90;999.90;;;;;;;2.34;100.00;96813.13;4952018;29;20038;-76
2023/01/19 10:46:16;;;;;;;1999.90;999.90;;;;;;;2.33;100.00;96798.00;4951575;29;20046;-76
2023/01/19 10:48:42;;;;;;;1999.90;999.90;;;;;;;2.35;100.00;96800.44;4951526;29;20079;-77
2023/01/19 10:51:09;;;;;;;1999.90;999.90;;;;;;;2.34;100.00;96807.72;4951570;29;20035;-76
2023/01/19 10:53:36;;;;;;;1999.90;999.90;;;;;;;2.40;100.00;96809.34;4946971;28;20051;-74
2023/01/19 10:56:10;;;;;;;1999.90;999.90;;;;;;;2.43;100.00;96814.19;4949941;29;20520;-75
2023/01/19 10:58:36;;;;;;;1999.90;999.90;;;;;;;2.52;100.00;96806.34;4951528;29;20496;-75
2023/01/19 11:01:22;;;;;;;1999.90;999.90;;;;;;;2.72;100.00;96806.31;4935593;29;20115;-75
2023/01/19 11:03:48;;;;;;;1999.90;999.90;;;;;;;3.07;100.00;96795.38;4935758;29;20032;-74
2023/01/19 11:06:15;;;;;;;1999.90;999.90;;;;;;;3.30;100.00;96785.84;4935186;29;20516;-77
2023/01/19 11:08:43;;;;;;;1999.90;999.90;;;;;;;3.66;100.00;96783.75;4917837;29;20067;-75